메인 페이지
METAR-TAF:

METAR-TAF

공항 :

레이캬비크, 아이슬란드

위도: 64-08N, 경도: 021-54W, 고도: 54m

현재 날씨관측

예보는 1 시간 1분 전, 11:00시(UTC)에 발표되었습니다.
남서23kt
온도 6°C
습도 81%
기압 982 hPa
시정 10km 이상
고도 1800ft 상공 구름 조금, 적란운.
고도 3200ft 상공 구름 많음
고도 4200ft 상공 흐림
소나기

METAR: BIRK 201100Z 22023KT 9999 SHRA FEW018CB BKN032 OVC042 06/03 Q0982

시각: 12:01 (12:01 UTC)

예보

예보는 1 시간 22분 전, 10:39시(UTC)에 발표되었습니다.
예보 대상 시간: 20일 12시부터 21일 12시까지 (UTC)
남남서22kt, 순간 최대 풍속 32kt
시정 10km 이상
고도 1500ft 상공 구름 조금, 적란운.
고도 2500ft 상공 구름 많음
소나기
전환 중
20일 15시부터 20일 17시까지 (UTC)
남서30kt, 순간 최대 풍속 45kt
전환 중
21일 00시부터 21일 02시까지 (UTC)
서남서25kt, 순간 최대 풍속 35kt
전환 중
21일 06시부터 21일 09시까지 (UTC)
서남서22kt

TAF: BIRK 201039Z 2012/2112 21022G32KT 9999 SHRA FEW015CB BKN025 TX08/2012Z TN05/2106Z BECMG 2015/2017 23030G45KT BECMG 2100/2102 24025G35KT BECMG 2106/2109 24022KT

4,000개 이상의 공항 관측 자료 및 예보 (METAR 및 TAF 보고).

지도상에서 검색 가능한 기상관측소가 노란 점과 빨간 점으로 표시되어 있습니다.

기상관측소 명을 보려면 표시 위로 마우스를 이동하세요.

날씨 관측과 예보를 보려면 클릭하세요.

지도 변경 : 확대하려면 엑스 표시가 있는 녹색 버튼, 축소하려면 빼기 표시가 있는 녹색 버튼, 다음 페이지의 지도를 보려면 녹색 화살표를 클릭하세요.


METAR-TAF: